Time;durP1;ratioP1;P1;durP2;ratioP2;P2;SDS_P1;SDS_P2;PMS_P1;PMS_P2;Temp;Humidity;BMP_temperature;BMP_pressure;BME280_temperature;BME280_humidity;BME280_pressure;Samples;Min_cycle;Max_cycle;Signal;HPM_P1;HPM_P2
2020/12/29 00:01:31;;;;;;;37.53;23.90;;;;;;;;;;4971398;28;20039;-74
2020/12/29 00:03:57;;;;;;;36.78;23.55;;;;;;;;;;4963892;28;20144;-75
2020/12/29 00:06:23;;;;;;;38.90;24.27;;;;;;;;;;4946663;28;20046;-75
2020/12/29 00:08:49;;;;;;;37.47;25.52;;;;;;;;;;4963186;28;20157;-75
2020/12/29 00:11:15;;;;;;;38.88;25.35;;;;;;;;;;4953681;28;20448;-75
2020/12/29 00:13:43;;;;;;;37.85;24.52;;;;;;;;;;4955217;28;20126;-75
2020/12/29 00:16:09;;;;;;;34.17;22.63;;;;;;;;;;4955491;28;20051;-74
2020/12/29 00:18:35;;;;;;;36.00;22.92;;;;;;;;;;4955293;28;20419;-75
2020/12/29 00:21:01;;;;;;;36.28;23.42;;;;;;;;;;4973035;28;20053;-75
2020/12/29 00:23:27;;;;;;;33.92;22.23;;;;;;;;;;4954081;28;20054;-75
2020/12/29 00:25:54;;;;;;;35.85;23.35;;;;;;;;;;4968922;28;20047;-75
2020/12/29 00:28:21;;;;;;;37.08;24.27;;;;;;;;;;4955226;28;20039;-75
2020/12/29 00:30:48;;;;;;;40.55;27.27;;;;;;;;;;4959978;28;20384;-74
2020/12/29 00:33:14;;;;;;;39.75;27.58;;;;;;;;;;4954090;28;20086;-75
2020/12/29 00:35:40;;;;;;;43.65;29.35;;;;;;;;;;4960322;28;20043;-75
2020/12/29 00:38:06;;;;;;;44.75;26.88;;;;;;;;;;4970167;28;20407;-75
2020/12/29 00:40:32;;;;;;;57.88;32.75;;;;;;;;;;4973867;28;20047;-75
2020/12/29 00:43:02;;;;;;;49.97;30.45;;;;;;;;;;4954026;28;20057;-75
2020/12/29 00:45:28;;;;;;;40.88;25.83;;;;;;;;;;4953948;28;20399;-74
2020/12/29 00:47:55;;;;;;;50.20;28.95;;;;;;;;;;4955584;28;20047;-75
2020/12/29 00:50:21;;;;;;;45.95;27.42;;;;;;;;;;4955250;28;20078;-75
2020/12/29 00:52:47;;;;;;;46.08;28.13;;;;;;;;;;4955332;28;20043;-75
2020/12/29 00:55:13;;;;;;;54.33;33.00;;;;;;;;;;4953872;28;20050;-75
2020/12/29 00:57:39;;;;;;;52.22;35.83;;;;;;;;;;4955020;28;20043;-75
2020/12/29 01:00:06;;;;;;;56.83;34.33;;;;;;;;;;4960080;28;20081;-75
2020/12/29 01:02:32;;;;;;;50.65;32.55;;;;;;;;;;4954966;28;20398;-75
2020/12/29 01:04:59;;;;;;;57.63;33.40;;;;;;;;;;4960663;28;20515;-75
2020/12/29 01:07:25;;;;;;;54.20;31.85;;;;;;;;;;4967953;28;20047;-75
2020/12/29 01:09:51;;;;;;;47.28;30.75;;;;;;;;;;4967768;28;20054;-75
2020/12/29 01:12:17;;;;;;;52.78;32.33;;;;;;;;;;4966555;28;20039;-75
2020/12/29 01:14:43;;;;;;;52.10;33.28;;;;;;;;;;4961075;28;20047;-75
2020/12/29 01:17:10;;;;;;;48.03;30.55;;;;;;;;;;4965779;28;20050;-75
2020/12/29 01:19:36;;;;;;;44.40;28.75;;;;;;;;;;4964016;28;20037;-75
2020/12/29 01:22:03;;;;;;;38.38;26.48;;;;;;;;;;4961328;28;20039;-75
2020/12/29 01:24:30;;;;;;;43.75;28.77;;;;;;;;;;4965667;28;20046;-75
2020/12/29 01:26:56;;;;;;;44.08;26.38;;;;;;;;;;4960042;28;20039;-75
2020/12/29 01:29:22;;;;;;;37.50;23.27;;;;;;;;;;4961114;28;20402;-75
2020/12/29 01:31:49;;;;;;;39.58;24.08;;;;;;;;;;4958048;28;20046;-75
2020/12/29 01:34:15;;;;;;;46.95;26.02;;;;;;;;;;4962907;28;20043;-75
2020/12/29 01:36:41;;;;;;;42.90;25.02;;;;;;;;;;4959838;28;20036;-75
2020/12/29 01:39:08;;;;;;;43.13;26.60;;;;;;;;;;4960666;28;20036;-75
2020/12/29 01:41:35;;;;;;;41.30;26.55;;;-3.60;99.90;;;;;;4960997;28;20130;-75
2020/12/29 01:44:12;;;;;;;49.63;30.33;;;-4.30;99.90;;;;;;4961634;28;20031;-75
2020/12/29 01:46:39;;;;;;;47.15;30.38;;;;;;;;;;4967046;28;20142;-75
2020/12/29 01:49:05;;;;;;;44.20;29.17;;;;;;;;;;4962924;28;20049;-75
2020/12/29 01:51:31;;;;;;;46.10;29.90;;;;;;;;;;4971412;28;20077;-75
2020/12/29 01:53:57;;;;;;;41.67;29.65;;;;;;;;;;4964056;28;20064;-76
2020/12/29 01:56:25;;;;;;;44.80;27.90;;;;;;;;;;4957284;28;20062;-76
2020/12/29 01:58:51;;;;;;;38.95;25.67;;;;;;;;;;4958947;28;20115;-75
2020/12/29 02:01:17;;;;;;;38.65;26.40;;;;;;;;;;4958422;28;20514;-75
2020/12/29 02:03:43;;;;;;;40.30;25.98;;;;;;;;;;4965091;28;20086;-75
2020/12/29 02:06:09;;;;;;;36.83;25.02;;;-4.50;99.90;;;;;;4977239;28;20038;-75
2020/12/29 02:08:36;;;;;;;40.50;24.88;;;-4.60;99.90;;;;;;4969478;28;20069;-76
2020/12/29 02:11:02;;;;;;;37.45;24.83;;;-4.60;99.90;;;;;;4962523;28;20043;-75
2020/12/29 02:13:29;;;;;;;36.30;25.25;;;-4.60;99.90;;;;;;4969286;28;20034;-76
2020/12/29 02:15:54;;;;;;;32.92;23.13;;;-4.60;99.90;;;;;;4976848;28;20039;-76
2020/12/29 02:18:20;;;;;;;36.55;23.55;;;-4.60;99.90;;;;;;4971487;28;20053;-76
2020/12/29 02:20:46;;;;;;;37.03;24.42;;;-4.70;99.90;;;;;;4962137;28;20118;-76
2020/12/29 02:23:13;;;;;;;36.70;23.20;;;-4.80;99.90;;;;;;4968331;28;20043;-76
2020/12/29 02:25:39;;;;;;;34.00;22.33;;;-4.90;99.90;;;;;;4961751;28;20494;-76
2020/12/29 02:28:05;;;;;;;42.70;26.20;;;-4.90;99.90;;;;;;4983487;28;20051;-76
2020/12/29 02:30:32;;;;;;;37.17;25.67;;;-4.90;99.90;;;;;;4967340;28;20516;-76
2020/12/29 02:32:58;;;;;;;35.00;22.95;;;-5.00;99.90;;;;;;4968085;28;20062;-76
2020/12/29 02:35:24;;;;;;;37.55;24.98;;;-4.90;99.90;;;;;;4976590;28;20077;-76
2020/12/29 02:37:49;;;;;;;37.92;24.42;;;-4.90;99.90;;;;;;4976696;28;20093;-76
2020/12/29 02:40:16;;;;;;;37.15;24.98;;;-4.80;99.90;;;;;;4976650;28;20394;-76
2020/12/29 02:42:42;;;;;;;39.80;26.15;;;-4.80;99.90;;;;;;4970319;28;20162;-76
2020/12/29 02:45:08;;;;;;;42.95;26.25;;;-4.90;99.90;;;;;;4968859;28;20043;-76
2020/12/29 02:47:34;;;;;;;36.45;25.13;;;-4.90;99.90;;;;;;4972723;28;20041;-76
2020/12/29 02:50:00;;;;;;;37.45;23.77;;;-4.90;99.90;;;;;;4965577;28;20490;-76
2020/12/29 02:52:26;;;;;;;35.92;22.92;;;-4.90;99.90;;;;;;4976562;28;20542;-76
2020/12/29 02:54:52;;;;;;;38.47;25.88;;;-4.80;99.90;;;;;;4976459;28;20046;-76
2020/12/29 02:57:18;;;;;;;35.72;22.70;;;-4.90;99.90;;;;;;4976480;28;20398;-76
2020/12/29 02:59:44;;;;;;;32.72;21.25;;;-4.80;99.90;;;;;;4976474;28;20507;-76
2020/12/29 03:02:10;;;;;;;32.50;23.25;;;-4.80;99.90;;;;;;4966273;28;20073;-76
2020/12/29 03:04:36;;;;;;;31.83;22.10;;;-4.80;99.90;;;;;;4960419;28;20138;-76
2020/12/29 03:07:02;;;;;;;34.40;23.02;;;-4.80;99.90;;;;;;4970858;28;20056;-76
2020/12/29 03:09:28;;;;;;;32.53;22.92;;;-4.80;99.90;;;;;;4976221;28;20109;-76
2020/12/29 03:11:54;;;;;;;39.65;24.88;;;-4.80;99.90;;;;;;4976279;28;20094;-76
2020/12/29 03:14:20;;;;;;;40.35;23.17;;;-4.90;99.90;;;;;;4964617;28;20043;-76
2020/12/29 03:16:46;;;;;;;35.97;24.00;;;-4.90;99.90;;;;;;4976112;28;20581;-76
2020/12/29 03:19:14;;;;;;;38.20;23.42;;;-4.90;99.90;;;;;;4969790;28;20047;-76
2020/12/29 03:21:40;;;;;;;36.03;23.73;;;-4.90;99.90;;;;;;4963246;28;20046;-76
2020/12/29 03:24:06;;;;;;;36.17;22.42;;;-4.80;99.90;;;;;;4984202;28;20066;-76
2020/12/29 03:26:31;;;;;;;35.60;23.80;;;-4.80;99.90;;;;;;4974197;28;20453;-76
2020/12/29 03:28:59;;;;;;;38.85;23.05;;;-4.70;99.90;;;;;;4965986;28;20039;-76
2020/12/29 03:31:26;;;;;;;36.30;23.83;;;-4.60;99.90;;;;;;4971525;28;20039;-76
2020/12/29 03:33:52;;;;;;;31.83;21.52;;;-4.70;99.90;;;;;;4975651;28;20031;-76
2020/12/29 03:36:18;;;;;;;32.65;20.02;;;-4.80;99.90;;;;;;4964696;28;20038;-76
2020/12/29 03:38:44;;;;;;;31.35;22.10;;;-4.90;99.90;;;;;;4975722;28;20042;-76
2020/12/29 03:41:10;;;;;;;32.58;21.23;;;-5.10;99.90;;;;;;4965330;28;20043;-76
2020/12/29 03:43:35;;;;;;;33.05;21.75;;;-5.10;99.90;;;;;;4965240;28;20450;-76
2020/12/29 03:46:01;;;;;;;33.10;22.50;;;-5.00;99.90;;;;;;4976385;28;20042;-76
2020/12/29 03:48:28;;;;;;;35.75;22.83;;;-5.10;99.90;;;;;;4974136;28;20043;-76
2020/12/29 03:50:54;;;;;;;32.08;22.73;;;-6.60;99.90;;;;;;4975820;28;20132;-76
2020/12/29 03:53:20;;;;;;;39.28;24.27;;;-5.10;99.90;;;;;;4975630;28;20506;-76
2020/12/29 03:55:46;;;;;;;37.60;23.33;;;-5.10;99.90;;;;;;4976986;28;20042;-76
2020/12/29 03:58:12;;;;;;;35.45;23.17;;;;;;;;;;4978382;28;20126;-76
2020/12/29 04:00:38;;;;;;;35.90;22.45;;;;;;;;;;4975417;28;20131;-76
2020/12/29 04:03:05;;;;;;;39.90;25.55;;;;;;;;;;4961302;28;20046;-76
2020/12/29 04:05:32;;;;;;;34.50;23.73;;;;;;;;;;4974048;28;20451;-76
2020/12/29 04:07:58;;;;;;;49.25;27.13;;;-5.10;99.90;;;;;;4976933;28;20401;-76
2020/12/29 04:10:24;;;;;;;36.65;24.45;;;-5.30;99.90;;;;;;4964689;28;20047;-76
2020/12/29 04:12:50;;;;;;;37.35;24.98;;;-5.20;99.90;;;;;;4975332;28;20039;-76
2020/12/29 04:15:16;;;;;;;32.78;23.77;;;-5.20;99.90;;;;;;4959545;28;20070;-76
2020/12/29 04:17:43;;;;;;;34.53;20.98;;;-5.20;99.90;;;;;;4969149;28;20070;-76
2020/12/29 04:20:12;;;;;;;34.72;22.52;;;-5.20;99.90;;;;;;4975000;28;20162;-76
2020/12/29 04:22:40;;;;;;;36.40;23.98;;;-5.10;99.90;;;;;;4975114;28;20043;-76
2020/12/29 04:25:08;;;;;;;36.55;22.58;;;-5.10;99.90;;;;;;4968732;28;20053;-76
2020/12/29 04:27:34;;;;;;;33.50;21.35;;;-5.20;99.90;;;;;;4964828;28;20521;-76
2020/12/29 04:30:00;;;;;;;40.15;25.63;;;-5.20;99.90;;;;;;4974999;28;20035;-76
2020/12/29 04:32:26;;;;;;;42.42;28.33;;;-5.20;99.90;;;;;;4974825;28;20043;-76
2020/12/29 04:34:52;;;;;;;36.63;24.00;;;-5.20;99.90;;;;;;4974788;28;20042;-76
2020/12/29 04:37:18;;;;;;;36.00;23.73;;;-5.20;99.90;;;;;;4974759;28;20454;-76
2020/12/29 04:39:45;;;;;;;35.63;23.40;;;-5.20;99.90;;;;;;4970814;28;20042;-76
2020/12/29 04:42:12;;;;;;;34.80;21.73;;;-5.20;99.90;;;;;;4974757;28;20533;-76
2020/12/29 04:44:39;;;;;;;31.90;21.33;;;-5.30;99.90;;;;;;4968605;28;20039;-76
2020/12/29 04:47:06;;;;;;;33.75;21.10;;;-5.30;99.90;;;;;;4974929;28;20089;-75
2020/12/29 04:49:32;;;;;;;31.88;22.10;;;;;;;;;;4962144;28;20114;-76
2020/12/29 04:52:02;;;;;;;29.83;20.25;;;-5.40;99.90;;;;;;4958377;28;20046;-76
2020/12/29 04:54:32;;;;;;;32.25;21.63;;;-6.20;99.90;;;;;;4970889;28;20093;-76
2020/12/29 04:57:01;;;;;;;37.30;23.00;;;-5.50;99.90;;;;;;4971117;28;20039;-76
2020/12/29 04:59:28;;;;;;;35.75;21.77;;;-5.40;99.90;;;;;;4972984;28;20047;-76
2020/12/29 05:01:54;;;;;;;32.17;20.70;;;-5.40;99.90;;;;;;4978613;28;20121;-76
2020/12/29 05:04:21;;;;;;;33.05;23.33;;;-5.30;99.90;;;;;;4976320;28;20062;-76
2020/12/29 05:06:47;;;;;;;35.50;22.58;;;-5.30;99.90;;;;;;4972262;28;20542;-77
2020/12/29 05:09:13;;;;;;;33.05;21.73;;;-5.30;99.90;;;;;;4975895;28;20129;-75
2020/12/29 05:11:39;;;;;;;36.03;23.08;;;-5.30;99.90;;;;;;4973908;28;20034;-76
2020/12/29 05:14:06;;;;;;;38.65;25.13;;;-5.30;99.90;;;;;;4978622;28;20034;-76
2020/12/29 05:16:36;;;;;;;38.83;25.58;;;-5.40;99.90;;;;;;4970411;28;20043;-76
2020/12/29 05:19:05;;;;;;;52.95;30.77;;;-5.50;99.90;;;;;;4978634;28;20109;-77
2020/12/29 05:21:33;;;;;;;42.65;28.42;;;-5.40;99.90;;;;;;4975911;28;20053;-76
2020/12/29 05:24:07;;;;;;;46.63;27.23;;;-5.30;99.90;;;;;;4978597;28;20466;-77
2020/12/29 05:26:35;;;;;;;50.63;29.85;;;-5.30;99.90;;;;;;4972413;28;20398;-76
2020/12/29 05:29:02;;;;;;;42.60;29.30;;;-5.30;99.90;;;;;;4965786;28;20092;-76
2020/12/29 05:31:31;;;;;;;42.45;26.90;;;-5.20;99.90;;;;;;4970870;28;20042;-76
2020/12/29 05:33:57;;;;;;;36.67;25.27;;;-5.20;99.90;;;;;;4981283;28;20382;-76
2020/12/29 05:36:24;;;;;;;36.08;24.17;;;-5.10;99.90;;;;;;4960916;28;20049;-76
2020/12/29 05:38:55;;;;;;;37.63;25.00;;;-5.10;99.90;;;;;;4966686;28;20499;-76
2020/12/29 05:41:22;;;;;;;37.88;26.25;;;-5.10;99.90;;;;;;4967540;28;20039;-76
2020/12/29 05:44:00;;;;;;;40.55;24.15;;;-5.20;99.90;;;;;;4967011;28;20376;-76
2020/12/29 05:46:31;;;;;;;33.53;21.27;;;-5.10;99.90;;;;;;4966285;28;20134;-77
2020/12/29 05:48:58;;;;;;;37.97;25.50;;;-5.20;99.90;;;;;;4972821;28;20403;-76
2020/12/29 05:51:25;;;;;;;39.65;25.45;;;-5.10;99.90;;;;;;4976543;28;20563;-77
2020/12/29 05:53:56;;;;;;;40.42;24.95;;;-5.20;99.90;;;;;;4962255;28;20380;-76
2020/12/29 05:56:22;;;;;;;43.92;26.85;;;-5.20;99.90;;;;;;4977401;28;20034;-76
2020/12/29 05:58:50;;;;;;;39.85;26.55;;;-5.20;99.90;;;;;;4977617;28;20041;-77
2020/12/29 06:01:16;;;;;;;40.15;25.42;;;-5.20;99.90;;;;;;4957565;28;20499;-77
2020/12/29 06:03:44;;;;;;;36.50;24.13;;;-5.20;99.90;;;;;;4958544;28;20050;-77
2020/12/29 06:06:12;;;;;;;37.13;23.63;;;-5.20;99.90;;;;;;4971499;28;20042;-77
2020/12/29 06:08:42;;;;;;;34.70;22.48;;;-5.20;99.90;;;;;;4966623;28;20381;-76
2020/12/29 06:11:13;;;;;;;31.38;21.02;;;-5.10;99.90;;;;;;4969994;28;20074;-76
2020/12/29 06:13:47;;;;;;;32.00;20.20;;;-5.10;99.90;;;;;;4975948;28;20031;-77
2020/12/29 06:16:17;;;;;;;31.27;20.08;;;-5.20;99.90;;;;;;4978797;28;20082;-76
2020/12/29 06:18:48;;;;;;;32.72;20.42;;;-5.20;99.90;;;;;;4978126;28;20054;-77
2020/12/29 06:21:18;;;;;;;27.70;19.17;;;-5.20;99.90;;;;;;4964597;28;20054;-76
2020/12/29 06:23:47;;;;;;;31.30;21.08;;;-5.20;99.90;;;;;;4981726;28;20039;-76
2020/12/29 06:26:17;;;;;;;29.45;20.30;;;-5.30;99.90;;;;;;4973822;28;20482;-77
2020/12/29 06:28:47;;;;;;;32.20;20.92;;;-5.30;99.90;;;;;;4962570;28;20117;-76
2020/12/29 06:31:20;;;;;;;31.88;19.65;;;-5.30;99.90;;;;;;4972870;28;20038;-76
2020/12/29 06:33:52;;;;;;;29.17;19.88;;;-5.40;99.90;;;;;;4968531;28;20039;-76
2020/12/29 06:36:20;;;;;;;32.60;19.38;;;-5.40;99.90;;;;;;4969976;28;20051;-76
2020/12/29 06:38:48;;;;;;;28.00;20.00;;;-5.40;99.90;;;;;;4971352;28;20035;-76
2020/12/29 06:41:18;;;;;;;28.42;18.60;;;-5.40;99.90;;;;;;4975277;28;20510;-76
2020/12/29 06:43:45;;;;;;;29.75;19.15;;;-5.40;99.90;;;;;;4968935;28;20042;-76
2020/12/29 06:46:12;;;;;;;29.27;20.00;;;-5.40;99.90;;;;;;4962938;28;20483;-76
2020/12/29 06:48:38;;;;;;;32.85;20.67;;;-5.30;99.90;;;;;;4956923;28;20062;-76
2020/12/29 06:51:12;;;;;;;29.30;20.17;;;-5.40;99.90;;;;;;4963958;28;20043;-76
2020/12/29 06:53:39;;;;;;;32.40;20.48;;;-5.30;99.90;;;;;;4961461;28;20383;-76
2020/12/29 06:56:12;;;;;;;31.55;19.92;;;-5.30;99.90;;;;;;4962414;28;20042;-76
2020/12/29 06:58:38;;;;;;;30.35;19.60;;;-5.30;99.90;;;;;;4957371;28;20542;-76
2020/12/29 07:01:19;;;;;;;29.30;20.08;;;-5.30;99.90;;;;;;4975492;28;20030;-77
2020/12/29 07:03:46;;;;;;;32.45;21.67;;;-5.40;99.90;;;;;;4977354;28;20038;-76
2020/12/29 07:06:13;;;;;;;31.75;19.60;;;-5.40;99.90;;;;;;4958706;28;20090;-77
2020/12/29 07:08:39;;;;;;;41.58;23.27;;;-5.50;99.90;;;;;;4973150;28;20039;-76
2020/12/29 07:11:16;;;;;;;38.92;24.17;;;-5.50;99.90;;;;;;4976320;28;20035;-76
2020/12/29 07:13:45;;;;;;;36.20;23.90;;;-5.60;99.90;;;;;;4972169;28;20038;-76
2020/12/29 07:16:12;;;;;;;37.20;23.30;;;-5.90;99.90;;;;;;4972781;28;20093;-76
2020/12/29 07:18:44;;;;;;;33.97;21.65;;;-5.90;99.90;;;;;;4976109;28;20523;-76
2020/12/29 07:21:24;;;;;;;33.55;21.70;;;-5.80;99.90;;;;;;4961043;28;20383;-76
2020/12/29 07:23:52;;;;;;;30.00;21.33;;;-5.70;99.90;;;;;;4970807;28;20042;-77
2020/12/29 07:26:19;;;;;;;32.72;21.38;;;-5.70;99.90;;;;;;4962759;28;20450;-77
2020/12/29 07:28:45;;;;;;;32.72;20.27;;;-5.70;99.90;;;;;;4974500;28;20455;-77
2020/12/29 07:31:14;;;;;;;31.35;20.75;;;-5.70;99.90;;;;;;4983483;28;20059;-77
2020/12/29 07:33:48;;;;;;;29.65;19.85;;;-5.70;99.90;;;;;;4976816;28;20035;-77
2020/12/29 07:36:17;;;;;;;29.95;20.35;;;-5.90;99.90;;;;;;4977671;28;20039;-76
2020/12/29 07:38:46;;;;;;;29.95;20.65;;;-5.90;99.90;;;;;;4956261;28;20035;-77
2020/12/29 07:41:20;;;;;;;37.75;22.05;;;-5.90;99.90;;;;;;5125459;27;20347;-78
2020/12/29 07:43:47;;;;;;;32.88;21.23;;;-5.90;99.90;;;;;;5116945;28;20032;-78
2020/12/29 07:46:13;;;;;;;35.22;22.25;;;-5.90;99.90;;;;;;5093801;28;20036;-78
2020/12/29 07:48:40;;;;;;;39.33;23.15;;;-5.90;99.90;;;;;;5101373;28;20032;-78
2020/12/29 07:51:06;;;;;;;37.20;21.77;;;-5.80;99.90;;;;;;5088508;28;20442;-78
2020/12/29 07:53:33;;;;;;;41.85;25.02;;;-5.70;99.90;;;;;;5115435;28;20482;-78
2020/12/29 07:55:59;;;;;;;42.78;26.33;;;;;;;;;;5090925;28;20080;-77
2020/12/29 07:58:26;;;;;;;45.38;28.35;;;;;;;;;;5085578;28;20040;-77
2020/12/29 08:00:52;;;;;;;58.97;35.17;;;-5.60;99.90;;;;;;5089420;28;20040;-77
2020/12/29 08:03:18;;;;;;;50.70;30.15;;;-5.10;99.90;;;;;;5103574;28;20043;-77
2020/12/29 08:05:45;;;;;;;43.60;28.73;;;-5.00;99.90;;;;;;5087855;28;20035;-76
2020/12/29 08:08:12;;;;;;;46.60;29.00;;;-4.90;99.90;;;;;;5109766;28;20521;-77
2020/12/29 08:10:39;;;;;;;40.97;26.42;;;-4.80;99.90;;;;;;5093226;28;20093;-78
2020/12/29 08:13:07;;;;;;;45.50;28.42;;;-4.80;99.90;;;;;;5090593;28;20525;-76
2020/12/29 08:15:34;;;;;;;41.08;26.75;;;-4.70;99.90;;;;;;5092415;28;20433;-78
2020/12/29 08:18:05;;;;;;;44.00;26.55;;;-4.70;99.90;;;;;;5089699;28;20067;-79
2020/12/29 08:20:32;;;;;;;43.78;26.77;;;-4.60;99.90;;;;;;5082081;28;20040;-77
2020/12/29 08:23:02;;;;;;;44.22;28.55;;;-4.60;99.90;;;;;;5081971;28;20123;-78
2020/12/29 08:25:30;;;;;;;38.25;26.02;;;-4.60;99.90;;;;;;5099755;28;20052;-77
2020/12/29 08:27:57;;;;;;;36.63;23.98;;;-4.50;99.90;;;;;;5100268;28;20410;-76
2020/12/29 08:30:24;;;;;;;35.70;24.10;;;-4.40;99.90;;;;;;5098628;28;20039;-75
2020/12/29 08:32:54;;;;;;;40.03;24.17;;;-4.20;99.90;;;;;;5081803;28;20036;-76
2020/12/29 08:35:20;;;;;;;49.03;32.80;;;-4.10;99.90;;;;;;5080644;28;20044;-76
2020/12/29 08:37:59;;;;;;;52.28;35.47;;;-4.00;99.90;;;;;;5099238;28;20081;-78
2020/12/29 08:40:30;;;;;;;53.40;35.38;;;-3.80;99.90;;;;;;5095918;28;20060;-77
2020/12/29 08:43:00;;;;;;;50.63;33.80;;;-3.60;99.90;;;;;;5099227;28;20031;-76
2020/12/29 08:45:28;;;;;;;46.90;32.00;;;-3.40;99.90;;;;;;5081789;28;20056;-78
2020/12/29 08:47:59;;;;;;;51.60;34.88;;;-3.20;99.90;;;;;;5081241;28;20036;-75
2020/12/29 08:50:27;;;;;;;66.32;43.22;;;-3.00;99.90;;;;;;5097714;28;20119;-76
2020/12/29 08:53:01;;;;;;;43.60;29.35;;;;;;;;;;5065247;28;20514;-76
2020/12/29 08:55:29;;;;;;;41.95;28.00;;;-2.70;99.90;;;;;;5085268;28;20442;-75
2020/12/29 08:57:56;;;;;;;43.88;29.77;;;-2.20;99.90;;;;;;5083600;28;20029;-76
2020/12/29 09:00:22;;;;;;;;;;;-1.90;99.90;;;;;;5066112;28;20040;-76
2020/12/29 09:02:47;;;;;;;;;;;-1.70;99.90;;;;;;5082060;28;20222;-75
2020/12/29 09:05:19;;;;;;;;;;;-1.40;99.90;;;;;;5068585;28;19916;-74
2020/12/29 09:07:44;;;;;;;;;;;-1.20;99.90;;;;;;5092572;28;20033;-75
2020/12/29 09:10:10;;;;;;;33.67;23.67;;;-1.10;99.90;;;;;;5087358;28;19920;-75
2020/12/29 09:12:36;;;;;;;37.63;22.88;;;-0.90;99.90;;;;;;5091725;28;20040;-76
2020/12/29 09:15:04;;;;;;;32.63;22.55;;;-0.80;99.90;;;;;;5077608;28;20042;-74
2020/12/29 09:17:32;;;;;;;32.00;22.13;;;-0.60;99.90;;;;;;5086523;28;20028;-74
2020/12/29 09:20:16;;;;;;;31.65;21.58;;;-0.40;99.90;;;;;;5077020;28;20081;-73
2020/12/29 09:23:00;;;;;;;36.25;28.67;;;-0.30;99.90;;;;;;5093721;28;20394;-74
2020/12/29 09:25:31;;;;;;;38.13;26.67;;;0.00;99.90;;;;;;5071696;28;20043;-74
2020/12/29 09:28:10;;;;;;;;;;;0.10;99.90;;;;;;5070005;28;20050;-73
2020/12/29 09:30:36;;;;;;;;;;;0.20;99.90;;;;;;5063300;28;20011;-73
2020/12/29 09:33:03;;;;;;;30.10;20.65;;;0.40;99.90;;;;;;5091783;28;20000;-73
2020/12/29 09:35:29;;;;;;;30.55;21.77;;;0.60;99.90;;;;;;5093208;28;20032;-73
2020/12/29 09:37:57;;;;;;;27.67;20.20;;;0.60;99.90;;;;;;5073129;28;20042;-73
2020/12/29 09:40:24;;;;;;;30.88;22.20;;;0.60;99.90;;;;;;5078275;28;20048;-74
2020/12/29 09:42:50;;;;;;;30.60;20.65;;;0.70;99.90;;;;;;5092466;28;20037;-75
2020/12/29 09:45:19;;;;;;;27.17;20.73;;;0.70;99.90;;;;;;5087168;28;20040;-75
2020/12/29 09:47:45;;;;;;;30.00;21.75;;;0.90;99.90;;;;;;5093668;28;20029;-75
2020/12/29 09:50:11;;;;;;;;;;;0.90;99.90;;;;;;5075043;28;20039;-73
2020/12/29 09:52:36;;;;;;;;;;;1.00;99.90;;;;;;5088901;28;19916;-72
2020/12/29 09:55:02;;;;;;;;;;;;;;;;;;5076967;28;19916;-72
2020/12/29 09:57:29;;;;;;;32.30;22.55;;;;;;;;;;5074919;28;20374;-72
2020/12/29 09:59:56;;;;;;;31.30;22.73;;;;;;;;;;5089189;28;20036;-73
2020/12/29 10:02:22;;;;;;;28.38;20.83;;;1.20;99.90;;;;;;5075911;28;20097;-73
2020/12/29 10:04:48;;;;;;;30.73;23.15;;;1.50;99.90;;;;;;5073962;28;20495;-73
2020/12/29 10:07:14;;;;;;;35.85;23.50;;;1.70;99.90;;;;;;5080064;28;20035;-73
2020/12/29 10:09:40;;;;;;;32.30;24.17;;;1.90;99.90;;;;;;5063875;28;20052;-73
2020/12/29 10:12:06;;;;;;;33.88;26.33;;;2.20;99.90;;;;;;5081057;28;20039;-73
2020/12/29 10:14:32;;;;;;;38.92;28.80;;;2.30;99.90;;;;;;5080153;28;20032;-74
2020/12/29 10:16:58;;;;;;;35.28;26.23;;;2.50;99.90;;;;;;5059257;28;20043;-73
2020/12/29 10:19:24;;;;;;;32.75;25.33;;;2.60;99.90;;;;;;5082213;28;20036;-76
2020/12/29 10:21:51;;;;;;;30.08;23.00;;;2.80;99.90;;;;;;5082602;28;20089;-76
2020/12/29 10:24:17;;;;;;;34.53;25.88;;;2.90;99.90;;;;;;5064684;28;20036;-74
2020/12/29 10:26:43;;;;;;;32.65;25.65;;;3.00;99.90;;;;;;5082003;28;20032;-73
2020/12/29 10:29:09;;;;;;;22.17;17.23;;;3.00;99.00;;;;;;5082965;28;20044;-74
2020/12/29 10:31:36;;;;;;;23.70;18.38;;;2.90;98.90;;;;;;5064079;28;20091;-74
2020/12/29 10:34:04;;;;;;;20.08;14.95;;;2.80;99.10;;;;;;5084037;28;20072;-74
2020/12/29 10:36:34;;;;;;;17.40;13.40;;;2.70;98.50;;;;;;5063842;28;20035;-73
2020/12/29 10:39:00;;;;;;;19.83;15.05;;;2.50;99.20;;;;;;5083281;28;20032;-73
2020/12/29 10:41:28;;;;;;;21.00;15.75;;;2.60;99.00;;;;;;5081813;28;20064;-74
2020/12/29 10:43:54;;;;;;;21.30;14.52;;;2.60;99.50;;;;;;5064313;28;20128;-73
2020/12/29 10:46:20;;;;;;;18.63;14.65;;;2.70;99.50;;;;;;5082117;28;20115;-73
2020/12/29 10:48:47;;;;;;;19.42;14.55;;;2.90;98.90;;;;;;5081444;28;20039;-74
2020/12/29 10:51:17;;;;;;;19.50;13.88;;;2.90;98.10;;;;;;5082098;28;20036;-75
2020/12/29 10:53:42;;;;;;;17.67;13.38;;;2.80;97.90;;;;;;5082110;28;20052;-75
2020/12/29 10:56:09;;;;;;;19.88;15.60;;;2.90;97.40;;;;;;5082534;28;20420;-74
2020/12/29 10:58:35;;;;;;;21.63;16.10;;;2.80;97.60;;;;;;5083526;28;20075;-75
2020/12/29 11:01:00;;;;;;;23.50;18.85;;;2.80;97.80;;;;;;5062830;28;20063;-74
2020/12/29 11:03:26;;;;;;;24.85;19.75;;;2.50;97.80;;;;;;5063471;28;20040;-75
2020/12/29 11:05:53;;;;;;;26.73;19.90;;;2.00;98.40;;;;;;5082200;28;20039;-74
2020/12/29 11:08:19;;;;;;;24.33;20.10;;;1.90;98.60;;;;;;5083604;28;20040;-75
2020/12/29 11:10:45;;;;;;;25.92;20.45;;;1.70;99.10;;;;;;5082722;28;20029;-75
2020/12/29 11:13:11;;;;;;;27.15;21.20;;;1.50;99.10;;;;;;5063409;28;20053;-75
2020/12/29 11:15:37;;;;;;;29.80;21.00;;;1.50;99.90;;;;;;5063786;28;20032;-74
2020/12/29 11:18:02;;;;;;;25.00;18.38;;;1.50;99.90;;;;;;5081435;28;20079;-74
2020/12/29 11:20:28;;;;;;;27.63;20.17;;;1.50;99.90;;;;;;5064356;28;20040;-75
2020/12/29 11:22:55;;;;;;;27.27;20.65;;;1.50;99.90;;;;;;5065096;28;20036;-75
2020/12/29 11:25:21;;;;;;;30.65;22.80;;;1.50;99.90;;;;;;5082985;28;20074;-75
2020/12/29 11:27:47;;;;;;;33.10;22.92;;;1.40;99.90;;;;;;5063528;28;20104;-74
2020/12/29 11:30:13;;;;;;;36.80;20.08;;;1.30;99.90;;;;;;5082173;28;20090;-74
2020/12/29 11:32:39;;;;;;;31.73;22.73;;;1.30;99.90;;;;;;5082671;28;20032;-74
2020/12/29 11:35:04;;;;;;;29.35;23.10;;;1.30;99.90;;;;;;5082457;28;20065;-74
2020/12/29 11:37:30;;;;;;;36.92;24.38;;;1.30;99.90;;;;;;5063048;28;20055;-75
2020/12/29 11:39:57;;;;;;;30.65;22.25;;;1.20;99.90;;;;;;5081817;28;20101;-75
2020/12/29 11:42:23;;;;;;;29.13;21.42;;;1.10;99.90;;;;;;5082098;28;20115;-72
2020/12/29 11:44:49;;;;;;;28.98;21.08;;;1.20;99.90;;;;;;5083668;28;20465;-72
2020/12/29 11:47:15;;;;;;;29.92;22.58;;;1.30;99.90;;;;;;5081411;28;20055;-73
2020/12/29 11:49:41;;;;;;;31.80;22.73;;;1.30;99.90;;;;;;5064363;28;20040;-74
2020/12/29 11:52:06;;;;;;;30.58;23.60;;;1.40;99.90;;;;;;5064142;28;20043;-76
2020/12/29 11:54:32;;;;;;;26.35;20.33;;;1.50;99.90;;;;;;5063521;28;20109;-74
2020/12/29 11:56:59;;;;;;;22.77;16.88;;;1.60;99.90;;;;;;5082396;28;20047;-73
2020/12/29 11:59:25;;;;;;;26.20;18.33;;;1.70;99.90;;;;;;5082118;28;20044;-73
2020/12/29 12:01:51;;;;;;;20.33;16.15;;;1.90;99.90;;;;;;5060783;28;20032;-73
2020/12/29 12:04:17;;;;;;;22.70;14.73;;;2.00;99.90;;;;;;5063105;28;20036;-73
2020/12/29 12:06:45;;;;;;;18.75;13.70;;;2.00;99.60;;;;;;5067802;28;20048;-73
2020/12/29 12:09:12;;;;;;;18.65;14.98;;;2.10;99.90;;;;;;5082137;28;20444;-73
2020/12/29 12:11:38;;;;;;;20.92;15.27;;;2.10;99.90;;;;;;5083468;28;20036;-73
2020/12/29 12:14:05;;;;;;;24.42;17.58;;;2.20;99.90;;;;;;5081687;28;20056;-73
2020/12/29 12:16:37;;;;;;;26.33;18.15;;;2.30;99.90;;;;;;5081213;28;20035;-73
2020/12/29 12:19:02;;;;;;;27.27;18.30;;;2.40;99.90;;;;;;5064460;28;20033;-73
2020/12/29 12:21:28;;;;;;;;;;;2.40;99.90;;;;;;5076273;28;20035;-73
2020/12/29 12:23:54;;;;;;;;;;;2.40;99.90;;;;;;5080232;28;19916;-73
2020/12/29 12:26:20;;;;;;;;;;;2.40;99.80;;;;;;5074752;28;19965;-74
2020/12/29 12:28:46;;;;;;;23.40;16.88;;;2.40;99.90;;;;;;5078208;28;19916;-74
2020/12/29 12:31:14;;;;;;;28.33;19.95;;;2.50;99.90;;;;;;5069186;28;20044;-73
2020/12/29 12:33:40;;;;;;;28.38;21.15;;;2.60;99.90;;;;;;5084796;28;20041;-74
2020/12/29 12:36:06;;;;;;;31.70;21.30;;;2.60;99.90;;;;;;5067263;28;20098;-75
2020/12/29 12:38:32;;;;;;;26.30;19.15;;;2.70;99.90;;;;;;5084780;28;20044;-76
2020/12/29 12:40:58;;;;;;;27.33;20.65;;;2.80;99.90;;;;;;5084640;28;20050;-75
2020/12/29 12:43:24;;;;;;;28.52;23.02;;;2.90;99.90;;;;;;5066428;28;20048;-74
2020/12/29 12:45:50;;;;;;;28.38;22.27;;;3.00;99.90;;;;;;5066796;28;20036;-74
2020/12/29 12:48:16;;;;;;;32.65;23.27;;;2.90;99.90;;;;;;5085742;28;20038;-74
2020/12/29 12:50:43;;;;;;;;;;;2.90;99.90;;;;;;5083479;28;20036;-74
2020/12/29 12:53:09;;;;;;;30.52;22.45;;;2.80;99.90;;;;;;5085597;28;20014;-74